MiSS Molly — WCZ7602 — position and weather

sailwx.info

Track history (hours):
 
Tides and Currents Weather Stations Pressure Air Temp Water Temp Dewpoint Dewpoint Depression Visibility Wind Speed Wind Dir Waves Ship Positions

MiSS Molly

Owner: LONGLEY, WALTER A, TOPSHAM, ME. More information available from US FCC via Universal Licensing System and Coast Guard Vessel Documentation Center.

Last reported at 2017-Sep-19 22:00 UTC. Time now 2017-Sep-19 22:21 UTC.
Position N 45°58' W 085°52'.

Length 194 m; draft 7 m.

Type: Cargo ship. MMSI: 366938760.

Date/timePositionNaut miles runAvg speedWind from/ knotsBaromVisibWave heightAir tempDewpointWater temp
2017-Sep-19 22:00N 45°58' W 085°52'1 1.0
2017-Sep-19 21:01N 45°57' W 085°53'0 0.6
2017-Sep-19 20:59N 45°57' W 085°53'4 8.8
2017-Sep-19 20:30N 45°53' W 085°54'611.9
2017-Sep-19 20:00N 45°48' W 085°58'3812.3
2017-Sep-19 16:55N 45°24' W 086°40'10 2.6
2017-Sep-19 13:08N 45°15' W 086°46'1 4.8
2017-Sep-19 13:00N 45°14' W 086°46'53 1.1
2017-Sep-17 13:49N 45°48' W 085°48'411.4
2017-Sep-17 13:30N 45°50' W 085°43'711.6
2017-Sep-17 12:55N 45°53' W 085°35'511.3
2017-Sep-17 12:28N 45°54' W 085°28'611.8
2017-Sep-17 12:00N 45°53' W 085°20'611.8
2017-Sep-17 11:30N 45°52' W 085°12'611.8
2017-Sep-17 11:01N 45°51' W 085°03'611.8
2017-Sep-17 10:30N 45°50' W 084°55'611.9
2017-Sep-17 10:00N 45°49' W 084°47'611.7
2017-Sep-17 09:30N 45°47' W 084°39'612.0
2017-Sep-17 09:01N 45°44' W 084°32'611.7
2017-Sep-17 08:30N 45°41' W 084°24'611.4
2017-Sep-17 08:00N 45°41' W 084°16'611.9
2017-Sep-17 07:31N 45°38' W 084°08'612.1
2017-Sep-17 07:00N 45°35' W 084°01'612.2
2017-Sep-17 06:30N 45°32' W 083°53'611.8
2017-Sep-17 06:00N 45°29' W 083°46'4 8.6
2017-Sep-17 05:30N 45°25' W 083°47'0 0.4
2017-Sep-17 05:00N 45°25' W 083°47'0 0.0
2017-Sep-17 04:30N 45°25' W 083°47'0 0.0
2017-Sep-17 04:01N 45°25' W 083°47'0 0.0
2017-Sep-17 03:30N 45°25' W 083°47'0 0.0
2017-Sep-17 03:00N 45°25' W 083°47'0 0.0
2017-Sep-17 02:30N 45°25' W 083°47'0 0.0
2017-Sep-17 02:01N 45°25' W 083°47'0 0.0
2017-Sep-17 01:30N 45°25' W 083°47'0 0.0
2017-Sep-17 01:00N 45°25' W 083°47'0 0.0
2017-Sep-17 00:31N 45°25' W 083°47'0 0.0
2017-Sep-17 00:00N 45°25' W 083°47'0 0.0
2017-Sep-16 23:30N 45°25' W 083°47'0 0.0
2017-Sep-16 23:00N 45°25' W 083°47'0 0.0
2017-Sep-16 22:31N 45°25' W 083°47'0 0.0
2017-Sep-16 22:01N 45°25' W 083°47'0 0.0
2017-Sep-16 21:31N 45°25' W 083°47'0 0.0
2017-Sep-16 21:00N 45°25' W 083°47'0 0.0
2017-Sep-16 20:30N 45°25' W 083°47'0 0.0
2017-Sep-16 20:00N 45°25' W 083°47'1 1.5
2017-Sep-16 19:30N 45°25' W 083°46'2 4.6
2017-Sep-16 19:00N 45°27' W 083°47'612.1
2017-Sep-16 18:30N 45°32' W 083°53'612.0
2017-Sep-16 17:59N 45°35' W 084°00'612.1
2017-Sep-16 17:30N 45°38' W 084°08'612.3
2017-Sep-16 17:00N 45°40' W 084°16'611.9
2017-Sep-16 16:30N 45°41' W 084°24'612.2
2017-Sep-16 16:00N 45°44' W 084°32'612.4
2017-Sep-16 15:30N 45°47' W 084°39'612.2
2017-Sep-16 15:01N 45°49' W 084°48'612.5
2017-Sep-16 14:31N 45°50' W 084°57'612.5
2017-Sep-16 14:00N 45°50' W 085°06'510.1
2017-Sep-16 13:30N 45°46' W 085°09'612.4
2017-Sep-16 13:00N 45°41' W 085°14'612.6
2017-Sep-16 12:30N 45°36' W 085°20'612.6
2017-Sep-16 12:01N 45°31' W 085°25'612.7
2017-Sep-16 11:31N 45°26' W 085°30'612.7
2017-Sep-16 11:01N 45°20' W 085°36'612.6
2017-Sep-16 10:30N 45°15' W 085°41'612.5
2017-Sep-16 10:01N 45°10' W 085°46'22 0.5
2017-Sep-14 11:26N 45°19' W 086°15'611.9
2017-Sep-14 10:57N 45°24' W 086°13'511.9
2017-Sep-14 10:30N 45°29' W 086°11'611.9
2017-Sep-14 10:00N 45°35' W 086°09'611.9
2017-Sep-14 09:31N 45°41' W 086°06'611.8
2017-Sep-14 09:01N 45°44' W 085°59'911.7
2017-Sep-14 08:12N 45°48' W 085°47'211.5
2017-Sep-14 08:01N 45°49' W 085°45'611.7
2017-Sep-14 07:31N 45°52' W 085°37'611.3
2017-Sep-14 07:00N 45°54' W 085°29'611.7
2017-Sep-14 06:31N 45°53' W 085°21'611.7
2017-Sep-14 06:01N 45°52' W 085°13'611.8
2017-Sep-14 05:31N 45°51' W 085°04'611.9
2017-Sep-14 05:00N 45°50' W 084°56'611.8
2017-Sep-14 04:30N 45°49' W 084°48'611.5
2017-Sep-14 04:01N 45°48' W 084°40'611.8
2017-Sep-14 03:30N 45°44' W 084°33'611.7
2017-Sep-14 03:01N 45°42' W 084°25'611.2
2017-Sep-14 02:31N 45°41' W 084°17'611.6
2017-Sep-14 02:00N 45°39' W 084°10'612.1
2017-Sep-14 01:29N 45°36' W 084°02'612.3
2017-Sep-14 01:01N 45°33' W 083°55'612.2
2017-Sep-14 00:30N 45°30' W 083°47'5 9.3
2017-Sep-14 00:01N 45°25' W 083°47'0 0.9
2017-Sep-13 23:30N 45°25' W 083°47'0 0.0
2017-Sep-13 23:01N 45°25' W 083°47'0 0.0
2017-Sep-13 22:30N 45°25' W 083°47'0 0.1
2017-Sep-13 22:00N 45°25' W 083°47'0 0.0
2017-Sep-13 21:30N 45°25' W 083°47'0 0.0
2017-Sep-13 21:00N 45°25' W 083°47'0 0.0
2017-Sep-13 20:30N 45°25' W 083°47'0 0.0
2017-Sep-13 20:00N 45°25' W 083°47'0 0.0
2017-Sep-13 19:31N 45°25' W 083°47'0 0.0
2017-Sep-13 19:00N 45°25' W 083°47'0 0.0
2017-Sep-13 18:30N 45°25' W 083°47'0 0.0
2017-Sep-13 18:00N 45°25' W 083°47'0 0.0
2017-Sep-13 17:31N 45°25' W 083°47'0 0.0
2017-Sep-13 17:00N 45°25' W 083°47'0 0.0
2017-Sep-13 16:30N 45°25' W 083°47'0 0.0
2017-Sep-13 16:00N 45°25' W 083°47'0 0.0
2017-Sep-13 15:30N 45°25' W 083°47'0 0.0
2017-Sep-13 15:00N 45°25' W 083°47'0 0.0
2017-Sep-13 14:30N 45°25' W 083°47'0 0.0
2017-Sep-13 14:01N 45°25' W 083°47'0 0.0
2017-Sep-13 13:31N 45°25' W 083°47'0 0.0
2017-Sep-13 13:00N 45°25' W 083°47'0 0.0
2017-Sep-13 12:30N 45°25' W 083°47'0 0.0
2017-Sep-13 12:00N 45°25' W 083°47'0 0.0
2017-Sep-13 11:30N 45°25' W 083°47'0 0.0
2017-Sep-13 11:00N 45°25' W 083°47'0 0.1
2017-Sep-13 10:30N 45°25' W 083°47'1 2.1
2017-Sep-13 10:01N 45°25' W 083°46'2 4.4
2017-Sep-13 09:30N 45°26' W 083°43'611.4
2017-Sep-13 09:00N 45°25' W 083°35'612.2
2017-Sep-13 08:31N 45°25' W 083°26'612.5
2017-Sep-13 07:59N 45°20' W 083°20'1112.6
2017-Sep-13 07:09N 45°12' W 083°10'312.6
2017-Sep-13 06:53N 45°09' W 083°07'  
2017-Sep-10 15:00N 45°20' W 083°17'1212.2
2017-Sep-10 14:00N 45°24' W 083°33'612.1
2017-Sep-10 13:30N 45°26' W 083°42'4 8.0
2017-Sep-10 13:00N 45°25' W 083°47'0 0.1
2017-Sep-10 12:30N 45°25' W 083°47'0 0.1
2017-Sep-10 12:00N 45°25' W 083°47'0 0.0
2017-Sep-10 11:30N 45°25' W 083°47'0 0.0
2017-Sep-10 11:01N 45°25' W 083°47'0 0.0
2017-Sep-10 10:31N 45°25' W 083°47'0 0.0
2017-Sep-10 10:01N 45°25' W 083°47'0 0.0
2017-Sep-10 09:30N 45°25' W 083°47'0 0.0
2017-Sep-10 09:00N 45°25' W 083°47'0 0.0
2017-Sep-10 08:30N 45°25' W 083°47'0 0.0
2017-Sep-10 08:00N 45°25' W 083°47'0 0.0
2017-Sep-10 07:30N 45°25' W 083°47'0 0.0
2017-Sep-10 07:00N 45°25' W 083°47'0 0.0
2017-Sep-10 06:30N 45°25' W 083°47'0 0.0
2017-Sep-10 06:00N 45°25' W 083°47'0 0.0
2017-Sep-10 05:30N 45°25' W 083°47'0 0.0
2017-Sep-10 05:00N 45°25' W 083°47'0 0.0
2017-Sep-10 04:31N 45°25' W 083°47'0 0.0
2017-Sep-10 04:01N 45°25' W 083°47'0 0.0
2017-Sep-10 03:31N 45°25' W 083°47'0 0.1
2017-Sep-10 03:01N 45°25' W 083°47'0 0.0
2017-Sep-10 02:31N 45°25' W 083°47'0 0.6
2017-Sep-10 02:01N 45°25' W 083°47'1 1.5
2017-Sep-10 01:30N 45°25' W 083°46'0 0.4
2017-Sep-10 01:01N 45°26' W 083°46'0 0.1
2017-Sep-10 00:30N 45°26' W 083°46'0 0.1
2017-Sep-10 00:00N 45°26' W 083°46'0 0.0
2017-Sep-09 23:31N 45°26' W 083°46'0 0.0
2017-Sep-09 23:00N 45°26' W 083°46'0 0.0
2017-Sep-09 22:30N 45°26' W 083°46'  
Track history (hours):
 
Tides and Currents Weather Stations Pressure Air Temp Water Temp Dewpoint Dewpoint Depression Visibility Wind Speed Wind Dir Waves Ship Positions

MiSS Molly

Owner: LONGLEY, WALTER A, TOPSHAM, ME. More information available from US FCC via Universal Licensing System and Coast Guard Vessel Documentation Center.

Last reported at 2017-Sep-19 22:00 UTC. Time now 2017-Sep-19 22:21 UTC.
Position N 45°58' W 085°52'.

Length 194 m; draft 7 m.

Type: Cargo ship. MMSI: 366938760.

Date/timePositionNaut miles runAvg speedWind from/ knotsBaromVisibWave heightAir tempDewpointWater temp
2017-Sep-19 22:00N 45°58' W 085°52'1 1.0
2017-Sep-19 21:01N 45°57' W 085°53'0 0.6
2017-Sep-19 20:59N 45°57' W 085°53'4 8.8
2017-Sep-19 20:30N 45°53' W 085°54'611.9
2017-Sep-19 20:00N 45°48' W 085°58'3812.3
2017-Sep-19 16:55N 45°24' W 086°40'10 2.6
2017-Sep-19 13:08N 45°15' W 086°46'1 4.8
2017-Sep-19 13:00N 45°14' W 086°46'53 1.1
2017-Sep-17 13:49N 45°48' W 085°48'411.4
2017-Sep-17 13:30N 45°50' W 085°43'711.6
2017-Sep-17 12:55N 45°53' W 085°35'511.3
2017-Sep-17 12:28N 45°54' W 085°28'611.8
2017-Sep-17 12:00N 45°53' W 085°20'611.8
2017-Sep-17 11:30N 45°52' W 085°12'611.8
2017-Sep-17 11:01N 45°51' W 085°03'611.8
2017-Sep-17 10:30N 45°50' W 084°55'611.9
2017-Sep-17 10:00N 45°49' W 084°47'611.7
2017-Sep-17 09:30N 45°47' W 084°39'612.0
2017-Sep-17 09:01N 45°44' W 084°32'611.7
2017-Sep-17 08:30N 45°41' W 084°24'611.4
2017-Sep-17 08:00N 45°41' W 084°16'611.9
2017-Sep-17 07:31N 45°38' W 084°08'612.1
2017-Sep-17 07:00N 45°35' W 084°01'612.2
2017-Sep-17 06:30N 45°32' W 083°53'611.8
2017-Sep-17 06:00N 45°29' W 083°46'4 8.6
2017-Sep-17 05:30N 45°25' W 083°47'0 0.4
2017-Sep-17 05:00N 45°25' W 083°47'0 0.0
2017-Sep-17 04:30N 45°25' W 083°47'0 0.0
2017-Sep-17 04:01N 45°25' W 083°47'0 0.0
2017-Sep-17 03:30N 45°25' W 083°47'0 0.0
2017-Sep-17 03:00N 45°25' W 083°47'0 0.0
2017-Sep-17 02:30N 45°25' W 083°47'0 0.0
2017-Sep-17 02:01N 45°25' W 083°47'0 0.0
2017-Sep-17 01:30N 45°25' W 083°47'0 0.0
2017-Sep-17 01:00N 45°25' W 083°47'0 0.0
2017-Sep-17 00:31N 45°25' W 083°47'0 0.0
2017-Sep-17 00:00N 45°25' W 083°47'0 0.0
2017-Sep-16 23:30N 45°25' W 083°47'0 0.0
2017-Sep-16 23:00N 45°25' W 083°47'0 0.0
2017-Sep-16 22:31N 45°25' W 083°47'0 0.0
2017-Sep-16 22:01N 45°25' W 083°47'0 0.0
2017-Sep-16 21:31N 45°25' W 083°47'0 0.0
2017-Sep-16 21:00N 45°25' W 083°47'0 0.0
2017-Sep-16 20:30N 45°25' W 083°47'0 0.0
2017-Sep-16 20:00N 45°25' W 083°47'1 1.5
2017-Sep-16 19:30N 45°25' W 083°46'2 4.6
2017-Sep-16 19:00N 45°27' W 083°47'612.1
2017-Sep-16 18:30N 45°32' W 083°53'612.0
2017-Sep-16 17:59N 45°35' W 084°00'612.1
2017-Sep-16 17:30N 45°38' W 084°08'612.3
2017-Sep-16 17:00N 45°40' W 084°16'611.9
2017-Sep-16 16:30N 45°41' W 084°24'612.2
2017-Sep-16 16:00N 45°44' W 084°32'612.4
2017-Sep-16 15:30N 45°47' W 084°39'612.2
2017-Sep-16 15:01N 45°49' W 084°48'612.5
2017-Sep-16 14:31N 45°50' W 084°57'612.5
2017-Sep-16 14:00N 45°50' W 085°06'510.1
2017-Sep-16 13:30N 45°46' W 085°09'612.4
2017-Sep-16 13:00N 45°41' W 085°14'612.6
2017-Sep-16 12:30N 45°36' W 085°20'612.6
2017-Sep-16 12:01N 45°31' W 085°25'612.7
2017-Sep-16 11:31N 45°26' W 085°30'612.7
2017-Sep-16 11:01N 45°20' W 085°36'612.6
2017-Sep-16 10:30N 45°15' W 085°41'612.5
2017-Sep-16 10:01N 45°10' W 085°46'22 0.5
2017-Sep-14 11:26N 45°19' W 086°15'611.9
2017-Sep-14 10:57N 45°24' W 086°13'511.9
2017-Sep-14 10:30N 45°29' W 086°11'611.9
2017-Sep-14 10:00N 45°35' W 086°09'611.9
2017-Sep-14 09:31N 45°41' W 086°06'611.8
2017-Sep-14 09:01N 45°44' W 085°59'911.7
2017-Sep-14 08:12N 45°48' W 085°47'211.5
2017-Sep-14 08:01N 45°49' W 085°45'611.7
2017-Sep-14 07:31N 45°52' W 085°37'611.3
2017-Sep-14 07:00N 45°54' W 085°29'611.7
2017-Sep-14 06:31N 45°53' W 085°21'611.7
2017-Sep-14 06:01N 45°52' W 085°13'611.8
2017-Sep-14 05:31N 45°51' W 085°04'611.9
2017-Sep-14 05:00N 45°50' W 084°56'611.8
2017-Sep-14 04:30N 45°49' W 084°48'611.5
2017-Sep-14 04:01N 45°48' W 084°40'611.8
2017-Sep-14 03:30N 45°44' W 084°33'611.7
2017-Sep-14 03:01N 45°42' W 084°25'611.2
2017-Sep-14 02:31N 45°41' W 084°17'611.6
2017-Sep-14 02:00N 45°39' W 084°10'612.1
2017-Sep-14 01:29N 45°36' W 084°02'612.3
2017-Sep-14 01:01N 45°33' W 083°55'612.2
2017-Sep-14 00:30N 45°30' W 083°47'5 9.3
2017-Sep-14 00:01N 45°25' W 083°47'0 0.9
2017-Sep-13 23:30N 45°25' W 083°47'0 0.0
2017-Sep-13 23:01N 45°25' W 083°47'0 0.0
2017-Sep-13 22:30N 45°25' W 083°47'0 0.1
2017-Sep-13 22:00N 45°25' W 083°47'0 0.0
2017-Sep-13 21:30N 45°25' W 083°47'0 0.0
2017-Sep-13 21:00N 45°25' W 083°47'0 0.0
2017-Sep-13 20:30N 45°25' W 083°47'0 0.0
2017-Sep-13 20:00N 45°25' W 083°47'0 0.0
2017-Sep-13 19:31N 45°25' W 083°47'0 0.0
2017-Sep-13 19:00N 45°25' W 083°47'0 0.0
2017-Sep-13 18:30N 45°25' W 083°47'0 0.0
2017-Sep-13 18:00N 45°25' W 083°47'0 0.0
2017-Sep-13 17:31N 45°25' W 083°47'0 0.0
2017-Sep-13 17:00N 45°25' W 083°47'0 0.0
2017-Sep-13 16:30N 45°25' W 083°47'0 0.0
2017-Sep-13 16:00N 45°25' W 083°47'0 0.0
2017-Sep-13 15:30N 45°25' W 083°47'0 0.0
2017-Sep-13 15:00N 45°25' W 083°47'0 0.0
2017-Sep-13 14:30N 45°25' W 083°47'0 0.0
2017-Sep-13 14:01N 45°25' W 083°47'0 0.0
2017-Sep-13 13:31N 45°25' W 083°47'0 0.0
2017-Sep-13 13:00N 45°25' W 083°47'0 0.0
2017-Sep-13 12:30N 45°25' W 083°47'0 0.0
2017-Sep-13 12:00N 45°25' W 083°47'0 0.0
2017-Sep-13 11:30N 45°25' W 083°47'0 0.0
2017-Sep-13 11:00N 45°25' W 083°47'0 0.1
2017-Sep-13 10:30N 45°25' W 083°47'1 2.1
2017-Sep-13 10:01N 45°25' W 083°46'2 4.4
2017-Sep-13 09:30N 45°26' W 083°43'611.4
2017-Sep-13 09:00N 45°25' W 083°35'612.2
2017-Sep-13 08:31N 45°25' W 083°26'612.5
2017-Sep-13 07:59N 45°20' W 083°20'1112.6
2017-Sep-13 07:09N 45°12' W 083°10'312.6
2017-Sep-13 06:53N 45°09' W 083°07'  
2017-Sep-10 15:00N 45°20' W 083°17'1212.2
2017-Sep-10 14:00N 45°24' W 083°33'612.1
2017-Sep-10 13:30N 45°26' W 083°42'4 8.0
2017-Sep-10 13:00N 45°25' W 083°47'0 0.1
2017-Sep-10 12:30N 45°25' W 083°47'0 0.1
2017-Sep-10 12:00N 45°25' W 083°47'0 0.0
2017-Sep-10 11:30N 45°25' W 083°47'0 0.0
2017-Sep-10 11:01N 45°25' W 083°47'0 0.0
2017-Sep-10 10:31N 45°25' W 083°47'0 0.0
2017-Sep-10 10:01N 45°25' W 083°47'0 0.0
2017-Sep-10 09:30N 45°25' W 083°47'0 0.0
2017-Sep-10 09:00N 45°25' W 083°47'0 0.0
2017-Sep-10 08:30N 45°25' W 083°47'0 0.0
2017-Sep-10 08:00N 45°25' W 083°47'0 0.0
2017-Sep-10 07:30N 45°25' W 083°47'0 0.0
2017-Sep-10 07:00N 45°25' W 083°47'0 0.0
2017-Sep-10 06:30N 45°25' W 083°47'0 0.0
2017-Sep-10 06:00N 45°25' W 083°47'0 0.0
2017-Sep-10 05:30N 45°25' W 083°47'0 0.0
2017-Sep-10 05:00N 45°25' W 083°47'0 0.0
2017-Sep-10 04:31N 45°25' W 083°47'0 0.0
2017-Sep-10 04:01N 45°25' W 083°47'0 0.0
2017-Sep-10 03:31N 45°25' W 083°47'0 0.1
2017-Sep-10 03:01N 45°25' W 083°47'0 0.0
2017-Sep-10 02:31N 45°25' W 083°47'0 0.6
2017-Sep-10 02:01N 45°25' W 083°47'1 1.5
2017-Sep-10 01:30N 45°25' W 083°46'0 0.4
2017-Sep-10 01:01N 45°26' W 083°46'0 0.1
2017-Sep-10 00:30N 45°26' W 083°46'0 0.1
2017-Sep-10 00:00N 45°26' W 083°46'0 0.0
2017-Sep-09 23:31N 45°26' W 083°46'0 0.0
2017-Sep-09 23:00N 45°26' W 083°46'0 0.0
2017-Sep-09 22:30N 45°26' W 083°46'  

Dump ship's entire track history